createdAt,value
2023-11-12T00:00:13.262Z,11.90
2023-11-12T00:02:40.579Z,11.80
2023-11-12T00:05:12.824Z,12.32
2023-11-12T00:07:40.124Z,12.57
2023-11-12T00:10:12.919Z,14.95
2023-11-12T00:12:43.290Z,13.32
2023-11-12T00:15:10.895Z,13.52
2023-11-12T00:17:42.162Z,12.73
2023-11-12T00:20:16.500Z,12.40
2023-11-12T00:22:44.891Z,11.88
2023-11-12T00:25:14.069Z,11.88
2023-11-12T00:27:41.690Z,13.88
2023-11-12T00:30:10.656Z,14.18
2023-11-12T00:32:38.311Z,13.05
2023-11-12T00:35:06.371Z,13.98
2023-11-12T00:37:33.979Z,13.60
2023-11-12T00:40:01.581Z,13.52
2023-11-12T00:42:28.831Z,13.98
2023-11-12T00:44:56.387Z,13.60
2023-11-12T00:47:23.852Z,14.07
2023-11-12T00:49:52.469Z,14.10
2023-11-12T00:52:19.662Z,14.75
2023-11-12T00:54:46.842Z,15.82
2023-11-12T00:57:14.185Z,14.80
2023-11-12T00:59:42.109Z,15.60
2023-11-12T01:02:12.009Z,15.05
2023-11-12T01:04:39.189Z,15.52
2023-11-12T01:07:06.412Z,15.30
2023-11-12T01:09:35.857Z,15.68
2023-11-12T01:12:03.339Z,16.33
2023-11-12T01:14:30.542Z,15.93
2023-11-12T01:16:57.768Z,16.45
2023-11-12T01:19:24.950Z,16.92
2023-11-12T01:21:52.160Z,17.70
2023-11-12T01:24:20.947Z,17.92
2023-11-12T01:26:48.157Z,18.20
2023-11-12T01:29:15.583Z,18.88
2023-11-12T01:31:42.872Z,18.15
2023-11-12T01:34:10.131Z,19.40
2023-11-12T01:36:37.343Z,20.02
2023-11-12T01:39:08.590Z,19.92
2023-11-12T01:41:36.263Z,20.63
2023-11-12T01:44:03.826Z,20.30
2023-11-12T01:46:31.889Z,20.75
2023-11-12T01:49:00.933Z,21.10
2023-11-12T01:51:30.869Z,21.55
2023-11-12T01:54:00.326Z,21.30
2023-11-12T01:56:27.969Z,21.48
2023-11-12T01:58:58.769Z,22.73
2023-11-12T02:01:26.138Z,23.25
2023-11-12T02:03:54.337Z,23.00
2023-11-12T02:06:21.715Z,22.52
2023-11-12T02:08:48.933Z,22.33
2023-11-12T02:11:16.926Z,23.40
2023-11-12T02:13:44.687Z,23.13
2023-11-12T02:16:12.166Z,23.90
2023-11-12T02:18:45.024Z,23.27
2023-11-12T02:21:12.176Z,24.67
2023-11-12T02:23:39.816Z,23.38
2023-11-12T02:26:06.994Z,23.90
2023-11-12T02:28:34.231Z,24.67
2023-11-12T02:31:01.593Z,24.20
2023-11-12T02:33:29.295Z,22.55
2023-11-12T02:35:57.107Z,21.90
2023-11-12T02:38:25.578Z,21.77
2023-11-12T02:40:52.919Z,22.20
2023-11-12T02:43:21.222Z,22.85
2023-11-12T02:45:48.993Z,22.77
2023-11-12T02:48:16.697Z,21.55
2023-11-12T02:50:44.412Z,20.58
2023-11-12T02:53:13.046Z,22.15
2023-11-12T02:55:43.101Z,22.05
2023-11-12T02:58:11.367Z,20.88
2023-11-12T03:00:39.238Z,22.73
2023-11-12T03:03:06.648Z,22.40
2023-11-12T03:05:33.953Z,21.75
2023-11-12T03:08:01.219Z,21.80
2023-11-12T03:10:29.230Z,22.35
2023-11-12T03:12:56.444Z,21.55
2023-11-12T03:15:25.375Z,22.83
2023-11-12T03:17:53.765Z,22.42
2023-11-12T03:20:21.410Z,23.05
2023-11-12T03:22:48.647Z,22.95
2023-11-12T03:25:16.125Z,21.95
2023-11-12T03:27:43.514Z,22.30
2023-11-12T03:30:11.899Z,21.77
2023-11-12T03:32:39.485Z,21.55
2023-11-12T03:35:07.656Z,22.67
2023-11-12T03:37:34.890Z,23.73
2023-11-12T03:40:02.130Z,23.02
2023-11-12T03:42:29.377Z,22.35
2023-11-12T03:44:58.157Z,23.05
2023-11-12T03:47:25.995Z,23.30
2023-11-12T03:49:53.195Z,23.00
2023-11-12T03:52:20.355Z,22.63
2023-11-12T03:54:47.595Z,21.98
2023-11-12T03:57:15.567Z,23.25
2023-11-12T03:59:42.884Z,24.17
2023-11-12T04:02:10.121Z,23.45
2023-11-12T04:04:37.580Z,23.17
2023-11-12T04:07:05.171Z,23.40
2023-11-12T04:09:32.411Z,23.77
2023-11-12T04:11:59.674Z,22.88
2023-11-12T04:14:26.892Z,22.63
2023-11-12T04:16:54.111Z,24.00
2023-11-12T04:19:21.302Z,24.88
2023-11-12T04:21:48.978Z,24.88
2023-11-12T04:24:16.527Z,24.40
2023-11-12T04:26:44.293Z,25.48
2023-11-12T04:29:14.278Z,26.85
2023-11-12T04:31:41.695Z,26.95
2023-11-12T04:34:08.925Z,27.48
2023-11-12T04:36:39.098Z,27.42
2023-11-12T04:39:08.483Z,29.63
2023-11-12T04:41:35.710Z,28.45
2023-11-12T04:44:02.881Z,28.92
2023-11-12T04:46:31.267Z,29.55
2023-11-12T04:48:59.885Z,29.70
2023-11-12T04:51:27.891Z,28.27
2023-11-12T04:53:55.352Z,27.77
2023-11-12T04:56:22.595Z,28.73
2023-11-12T04:58:50.453Z,37.15
2023-11-12T05:01:18.200Z,32.35
2023-11-12T05:03:46.945Z,29.50
2023-11-12T05:06:15.493Z,29.25
2023-11-12T05:08:43.223Z,28.15
2023-11-12T05:11:10.466Z,28.88
2023-11-12T05:13:38.277Z,29.20
2023-11-12T05:16:06.202Z,29.00
2023-11-12T05:18:33.406Z,30.25
2023-11-12T05:21:00.580Z,30.30
2023-11-12T05:23:28.064Z,31.23
2023-11-12T05:25:59.312Z,29.80
2023-11-12T05:28:28.290Z,28.83
2023-11-12T05:30:58.547Z,29.10
2023-11-12T05:33:25.852Z,29.80
2023-11-12T05:35:53.038Z,29.42
2023-11-12T05:38:20.213Z,30.13
2023-11-12T05:40:47.531Z,29.38
2023-11-12T05:43:14.792Z,29.02
2023-11-12T05:45:42.000Z,28.42
2023-11-12T05:48:11.661Z,28.63
2023-11-12T05:50:39.617Z,28.88
2023-11-12T05:53:06.813Z,30.15
2023-11-12T05:55:34.173Z,29.27
2023-11-12T05:58:01.469Z,29.35
2023-11-12T06:00:28.842Z,29.15
2023-11-12T06:02:56.759Z,27.23
2023-11-12T06:05:23.985Z,29.27
2023-11-12T06:07:51.163Z,29.83
2023-11-12T06:10:18.719Z,29.55
2023-11-12T06:12:45.982Z,30.88
2023-11-12T06:15:13.544Z,29.63
2023-11-12T06:17:40.817Z,29.52
2023-11-12T06:20:08.721Z,28.80
2023-11-12T06:22:35.960Z,29.85
2023-11-12T06:25:03.684Z,29.38
2023-11-12T06:27:30.924Z,29.80
2023-11-12T06:29:58.969Z,27.67
2023-11-12T06:32:26.179Z,29.15
2023-11-12T06:34:53.462Z,29.55
2023-11-12T06:37:20.694Z,28.77
2023-11-12T06:39:47.946Z,29.33
2023-11-12T06:42:15.773Z,29.05
2023-11-12T06:44:43.376Z,28.08
2023-11-12T06:47:10.561Z,25.60
2023-11-12T06:49:37.711Z,27.08
2023-11-12T06:52:05.476Z,27.80
2023-11-12T06:54:32.692Z,26.38
2023-11-12T06:57:00.832Z,26.40
2023-11-12T06:59:29.339Z,27.15
2023-11-12T07:01:56.567Z,27.13
2023-11-12T07:04:24.397Z,25.45
2023-11-12T07:07:01.929Z,25.95
2023-11-12T07:09:36.889Z,25.45
2023-11-12T07:12:05.600Z,25.30
2023-11-12T07:14:33.005Z,26.52
2023-11-12T07:17:00.576Z,25.85
2023-11-12T07:19:27.922Z,25.23
2023-11-12T07:21:55.518Z,25.60
2023-11-12T07:24:22.838Z,35.70
2023-11-12T07:26:50.130Z,35.92
2023-11-12T07:29:17.388Z,34.28
2023-11-12T07:31:44.667Z,25.13
2023-11-12T07:34:11.976Z,23.88
2023-11-12T07:36:39.219Z,24.70
2023-11-12T07:39:08.131Z,24.77
2023-11-12T07:41:35.828Z,24.27
2023-11-12T07:44:03.578Z,23.92
2023-11-12T07:46:30.852Z,23.48
2023-11-12T07:48:58.471Z,25.15
2023-11-12T07:51:25.829Z,24.27
2023-11-12T07:53:53.174Z,24.45
2023-11-12T07:56:24.687Z,23.30
2023-11-12T07:58:55.135Z,24.00
2023-11-12T08:01:22.351Z,22.13
2023-11-12T08:03:49.611Z,24.20
2023-11-12T08:06:16.910Z,24.08
2023-11-12T08:08:44.122Z,22.77
2023-11-12T08:11:11.316Z,21.48
2023-11-12T08:13:39.977Z,21.92
2023-11-12T08:16:09.195Z,22.60
2023-11-12T08:18:38.079Z,23.35
2023-11-12T08:21:06.626Z,22.17
2023-11-12T08:23:33.862Z,22.08
2023-11-12T08:26:03.283Z,20.98
2023-11-12T08:28:30.754Z,22.70
2023-11-12T08:30:58.001Z,21.45
2023-11-12T08:33:25.298Z,21.83
2023-11-12T08:35:53.512Z,21.75
2023-11-12T08:38:20.821Z,20.77
2023-11-12T08:40:48.032Z,20.63
2023-11-12T08:43:15.930Z,20.48
2023-11-12T08:45:43.216Z,19.40
2023-11-12T08:48:10.488Z,28.52
2023-11-12T08:50:37.757Z,25.30
2023-11-12T08:53:05.017Z,22.60
2023-11-12T08:55:32.790Z,21.50
2023-11-12T08:58:00.085Z,20.20
2023-11-12T09:00:27.293Z,18.63
2023-11-12T09:02:54.614Z,18.02
2023-11-12T09:05:21.939Z,19.30
2023-11-12T09:07:49.139Z,18.40
2023-11-12T09:10:16.330Z,18.25
2023-11-12T09:12:43.678Z,17.60
2023-11-12T09:15:12.293Z,19.52
2023-11-12T09:17:39.612Z,20.40
2023-11-12T09:20:14.515Z,18.48
2023-11-12T09:22:41.931Z,16.35
2023-11-12T09:25:12.078Z,15.05
2023-11-12T09:27:39.738Z,15.75
2023-11-12T09:30:09.682Z,17.00
2023-11-12T09:32:37.215Z,15.52
2023-11-12T09:35:07.050Z,14.57
2023-11-12T09:37:34.392Z,14.07
2023-11-12T09:40:02.324Z,15.73
2023-11-12T09:42:30.188Z,14.70
2023-11-12T09:45:00.632Z,13.30
2023-11-12T09:48:04.391Z,14.10
2023-11-12T09:50:32.415Z,13.55
2023-11-12T09:53:04.254Z,13.80
2023-11-12T09:55:32.058Z,14.57
2023-11-12T09:58:02.601Z,14.38
2023-11-12T10:00:35.507Z,14.57
2023-11-12T10:05:35.845Z,14.70
2023-11-12T10:08:05.844Z,14.15
2023-11-12T10:10:34.687Z,13.15
2023-11-12T10:13:05.491Z,13.90
2023-11-12T10:15:35.145Z,12.13
2023-11-12T10:18:04.845Z,12.48
2023-11-12T10:20:40.982Z,13.77
2023-11-12T10:23:32.621Z,13.48
2023-11-12T10:26:00.935Z,13.50
2023-11-12T10:28:35.238Z,11.77
2023-11-12T10:31:03.147Z,13.07
2023-11-12T10:33:30.768Z,12.98
2023-11-12T10:36:08.979Z,12.55
2023-11-12T10:38:53.239Z,12.30
2023-11-12T10:41:20.707Z,13.60
2023-11-12T10:44:00.107Z,12.30
2023-11-12T10:46:29.357Z,12.70
2023-11-12T10:48:57.130Z,12.10
2023-11-12T10:51:26.535Z,12.23
2023-11-12T10:53:57.623Z,12.40
2023-11-12T10:56:25.566Z,12.32
2023-11-12T10:58:57.616Z,13.52
2023-11-12T11:01:27.166Z,12.80
2023-11-12T11:03:55.774Z,11.50
2023-11-12T11:06:25.755Z,12.48
2023-11-12T11:08:52.943Z,11.15
2023-11-12T11:11:22.368Z,11.32
2023-11-12T11:13:49.632Z,12.10
2023-11-12T11:16:48.681Z,11.40
2023-11-12T11:19:16.069Z,10.90
2023-11-12T11:22:22.243Z,11.13
2023-11-12T11:24:49.460Z,11.05
2023-11-12T11:27:20.059Z,11.73
2023-11-12T11:30:15.209Z,10.73
2023-11-12T11:32:58.760Z,9.30
2023-11-12T11:35:27.836Z,10.10
2023-11-12T11:38:07.056Z,10.10
2023-11-12T11:40:35.872Z,9.90
2023-11-12T11:43:24.698Z,10.10
2023-11-12T11:46:14.503Z,10.00
2023-11-12T11:48:44.743Z,11.52
2023-11-12T11:51:39.090Z,10.20
2023-11-12T11:54:07.742Z,10.02
2023-11-12T11:56:35.354Z,9.40
2023-11-12T11:59:03.058Z,9.60
2023-11-12T12:01:30.612Z,8.85
2023-11-12T12:04:07.119Z,9.10
2023-11-12T12:06:34.759Z,9.45
2023-11-12T12:09:02.166Z,8.90
2023-11-12T12:11:29.409Z,8.32
2023-11-12T12:14:01.908Z,8.60
2023-11-12T12:16:34.504Z,9.38
2023-11-12T12:19:03.447Z,8.63
2023-11-12T12:21:35.322Z,8.45
2023-11-12T12:24:07.140Z,8.25
2023-11-12T12:26:34.988Z,8.40
2023-11-12T12:29:02.170Z,7.85
2023-11-12T12:31:29.977Z,11.20
2023-11-12T12:34:09.384Z,9.57
2023-11-12T12:36:37.663Z,8.57
2023-11-12T12:39:13.516Z,8.45
2023-11-12T12:41:40.779Z,7.90
2023-11-12T12:44:28.852Z,8.10
2023-11-12T12:46:56.421Z,7.50
2023-11-12T12:49:34.768Z,8.35
2023-11-12T12:52:04.141Z,7.40
2023-11-12T12:54:32.076Z,7.55
2023-11-12T12:57:00.609Z,7.07
2023-11-12T12:59:36.272Z,7.28
2023-11-12T13:02:04.875Z,7.32
2023-11-12T13:04:34.109Z,9.13
2023-11-12T13:07:03.052Z,8.75
2023-11-12T13:09:33.020Z,8.82
2023-11-12T13:12:00.350Z,7.30
2023-11-12T13:14:27.526Z,7.72
2023-11-12T13:16:55.644Z,7.72
2023-11-12T13:19:24.444Z,7.28
2023-11-12T13:21:57.381Z,8.77
2023-11-12T13:24:30.445Z,8.20
2023-11-12T13:26:58.880Z,6.70
2023-11-12T13:29:28.309Z,6.90
2023-11-12T13:31:57.673Z,6.72
2023-11-12T13:34:25.283Z,6.85
2023-11-12T13:36:52.772Z,6.43
2023-11-12T13:39:20.165Z,6.70
2023-11-12T13:41:48.086Z,6.07
2023-11-12T13:44:16.460Z,5.97
2023-11-12T13:46:44.105Z,6.38
2023-11-12T13:49:11.898Z,6.78
2023-11-12T13:51:42.286Z,5.75
2023-11-12T13:54:11.522Z,6.03
2023-11-12T13:56:40.190Z,5.90
2023-11-12T13:59:09.938Z,6.50
2023-11-12T14:01:37.164Z,6.78
2023-11-12T14:04:08.707Z,6.22
2023-11-12T14:06:37.400Z,6.53
2023-11-12T14:09:05.155Z,6.28
2023-11-12T14:11:33.784Z,6.75
2023-11-12T14:14:01.425Z,7.20
2023-11-12T14:16:29.961Z,7.28
2023-11-12T14:18:57.230Z,8.80
2023-11-12T14:21:25.148Z,8.38
2023-11-12T14:23:52.414Z,7.22
2023-11-12T14:26:21.260Z,10.95
2023-11-12T14:28:50.278Z,10.55
2023-11-12T14:31:21.693Z,10.48
2023-11-12T14:33:50.384Z,8.18
2023-11-12T14:36:17.711Z,7.78
2023-11-12T14:38:44.942Z,7.05
2023-11-12T14:41:12.298Z,8.70
2023-11-12T14:43:40.970Z,11.23
2023-11-12T14:46:09.058Z,8.73
2023-11-12T14:48:36.409Z,8.45
2023-11-12T14:51:06.472Z,11.55
2023-11-12T14:53:34.013Z,11.23
2023-11-12T14:56:01.329Z,9.10
2023-11-12T14:58:28.542Z,8.80
2023-11-12T15:00:55.943Z,8.20
2023-11-12T15:03:26.286Z,6.30
2023-11-12T15:05:53.592Z,7.40
2023-11-12T15:08:21.037Z,9.32
2023-11-12T15:10:48.620Z,7.70
2023-11-12T15:13:15.766Z,7.45
2023-11-12T15:15:43.329Z,7.35
2023-11-12T15:18:14.195Z,7.45
2023-11-12T15:20:43.082Z,6.25
2023-11-12T15:23:10.270Z,6.50
2023-11-12T15:25:39.148Z,6.82
2023-11-12T15:28:06.415Z,7.10
2023-11-12T15:30:34.584Z,12.27
2023-11-12T15:33:01.937Z,13.02
2023-11-12T15:35:29.163Z,7.53
2023-11-12T15:37:56.378Z,9.02
2023-11-12T15:40:24.552Z,19.88
2023-11-12T15:42:56.682Z,16.38
2023-11-12T15:45:26.782Z,10.47
2023-11-12T15:47:54.729Z,10.13
2023-11-12T15:50:30.249Z,8.95
2023-11-12T15:53:01.451Z,7.80
2023-11-12T15:55:29.133Z,8.40
2023-11-12T15:57:56.448Z,9.75
2023-11-12T16:00:25.209Z,8.50
2023-11-12T16:02:56.939Z,7.45
2023-11-12T16:05:28.947Z,14.30
2023-11-12T16:07:57.480Z,23.02
2023-11-12T16:10:24.654Z,24.10
2023-11-12T16:12:51.964Z,10.32
2023-11-12T16:15:20.163Z,11.38
2023-11-12T16:17:49.678Z,9.50
2023-11-12T16:20:17.063Z,9.82
2023-11-12T16:22:47.646Z,10.18
2023-11-12T16:25:15.389Z,13.63
2023-11-12T16:27:42.688Z,22.98
2023-11-12T16:30:10.630Z,21.95
2023-11-12T16:32:37.919Z,16.13
2023-11-12T16:35:07.138Z,16.77
2023-11-12T16:37:34.470Z,15.30
2023-11-12T16:40:01.955Z,12.45
2023-11-12T16:42:29.397Z,13.27
2023-11-12T16:44:57.747Z,21.88
2023-11-12T16:47:25.375Z,14.90
2023-11-12T16:49:54.654Z,13.65
2023-11-12T16:52:22.773Z,9.10
2023-11-12T16:54:50.194Z,6.18
2023-11-12T16:57:17.609Z,6.05
2023-11-12T16:59:44.813Z,8.32
2023-11-12T17:02:14.951Z,8.18
2023-11-12T17:04:42.539Z,8.25
2023-11-12T17:07:12.139Z,9.93
2023-11-12T17:09:41.979Z,11.05
2023-11-12T17:12:13.707Z,10.90
2023-11-12T17:14:44.126Z,10.38
2023-11-12T17:17:12.489Z,11.68
2023-11-12T17:19:39.736Z,11.07
2023-11-12T17:22:08.704Z,10.68
2023-11-12T17:24:36.705Z,8.68
2023-11-12T17:27:05.964Z,7.95
2023-11-12T17:29:33.294Z,7.25
2023-11-12T17:32:00.534Z,6.97
2023-11-12T17:34:27.702Z,7.28
2023-11-12T17:37:04.481Z,20.95
2023-11-12T17:39:31.688Z,48.03
2023-11-12T17:41:59.037Z,37.30
2023-11-12T17:44:26.304Z,25.50
2023-11-12T17:46:58.100Z,16.10
2023-11-12T17:49:25.592Z,14.18
2023-11-12T17:51:52.803Z,14.70
2023-11-12T17:54:20.307Z,15.43
2023-11-12T17:56:48.931Z,9.65
2023-11-12T17:59:16.815Z,7.50
2023-11-12T18:01:44.343Z,8.38
2023-11-12T18:04:11.821Z,7.68
2023-11-12T18:06:44.067Z,7.65
2023-11-12T18:09:12.807Z,9.57
2023-11-12T18:11:40.077Z,14.10
2023-11-12T18:14:07.286Z,54.08
2023-11-12T18:16:37.929Z,79.70
2023-11-12T18:19:05.225Z,39.38
2023-11-12T18:21:32.556Z,12.93
2023-11-12T18:24:01.313Z,9.20
2023-11-12T18:26:30.231Z,8.88
2023-11-12T18:28:57.569Z,8.35
2023-11-12T18:31:26.103Z,8.45
2023-11-12T18:33:53.681Z,9.27
2023-11-12T18:36:20.938Z,8.80
2023-11-12T18:38:48.102Z,10.75
2023-11-12T18:41:15.692Z,13.55
2023-11-12T18:43:42.861Z,13.70
2023-11-12T18:46:10.242Z,15.15
2023-11-12T18:48:41.166Z,13.57
2023-11-12T18:51:08.513Z,11.05
2023-11-12T18:53:35.886Z,10.65
2023-11-12T18:56:08.132Z,10.93
2023-11-12T18:58:35.908Z,10.57
2023-11-12T19:01:04.060Z,11.85
2023-11-12T19:03:31.349Z,10.32
2023-11-12T19:05:58.687Z,10.32
2023-11-12T19:08:25.828Z,9.85
2023-11-12T19:10:53.056Z,10.25
2023-11-12T19:13:20.296Z,14.93
2023-11-12T19:15:47.606Z,12.63
2023-11-12T19:18:14.914Z,8.90
2023-11-12T19:20:42.182Z,7.53
2023-11-12T19:23:09.802Z,7.72
2023-11-12T19:25:40.300Z,7.88
2023-11-12T19:28:07.628Z,8.02
2023-11-12T19:30:35.842Z,7.55
2023-11-12T19:33:03.607Z,7.53
2023-11-12T19:35:31.948Z,7.28
2023-11-12T19:37:59.324Z,8.10
2023-11-12T19:40:26.904Z,8.63
2023-11-12T19:42:54.464Z,8.27
2023-11-12T19:45:22.755Z,8.07
2023-11-12T19:47:55.065Z,9.05
2023-11-12T19:50:23.549Z,8.68
2023-11-12T19:52:51.138Z,8.35
2023-11-12T19:55:20.346Z,7.93
2023-11-12T19:57:52.706Z,8.88
2023-11-12T20:02:51.195Z,15.27
2023-11-12T20:05:18.968Z,10.60
2023-11-12T20:07:46.172Z,9.90
2023-11-12T20:10:14.294Z,9.38
2023-11-12T20:12:41.857Z,9.05
2023-11-12T20:15:10.028Z,10.50
2023-11-12T20:17:39.104Z,9.10
2023-11-12T20:20:07.061Z,8.70
2023-11-12T20:22:34.283Z,8.82
2023-11-12T20:25:01.558Z,9.00
2023-11-12T20:27:28.955Z,13.18
2023-11-12T20:29:57.350Z,11.57
2023-11-12T20:32:25.339Z,10.07
2023-11-12T20:34:53.593Z,9.05
2023-11-12T20:37:20.893Z,9.50
2023-11-12T20:39:50.625Z,9.55
2023-11-12T20:42:17.917Z,54.33
2023-11-12T20:44:45.244Z,15.20
2023-11-12T20:47:13.615Z,19.85
2023-11-12T20:49:43.413Z,14.85
2023-11-12T20:52:10.946Z,10.57
2023-11-12T20:54:38.488Z,9.88
2023-11-12T20:57:07.220Z,8.25
2023-11-12T20:59:34.800Z,8.48
2023-11-12T21:02:10.353Z,8.23
2023-11-12T21:04:45.988Z,9.07
2023-11-12T21:07:13.919Z,10.50
2023-11-12T21:09:42.790Z,8.57
2023-11-12T21:12:10.342Z,8.27
2023-11-12T21:14:38.561Z,7.72
2023-11-12T21:17:05.844Z,8.60
2023-11-12T21:19:34.924Z,7.90
2023-11-12T21:22:02.506Z,7.43
2023-11-12T21:24:30.227Z,7.55
2023-11-12T21:26:58.677Z,7.70
2023-11-12T21:29:26.512Z,7.40
2023-11-12T21:31:55.234Z,7.03
2023-11-12T21:34:23.016Z,8.45
2023-11-12T21:36:51.052Z,9.07
2023-11-12T21:39:20.309Z,7.65
2023-11-12T21:41:49.207Z,6.63
2023-11-12T21:44:18.844Z,6.60
2023-11-12T21:46:47.861Z,7.03
2023-11-12T21:49:15.838Z,7.65
2023-11-12T21:51:44.173Z,9.23
2023-11-12T21:54:11.899Z,11.60
2023-11-12T21:56:39.096Z,9.38
2023-11-12T21:59:06.973Z,8.60
2023-11-12T22:01:34.260Z,7.35
2023-11-12T22:04:03.163Z,6.82
2023-11-12T22:06:30.688Z,12.18
2023-11-12T22:08:57.900Z,11.77
2023-11-12T22:11:26.526Z,8.70
2023-11-12T22:13:54.680Z,7.07
2023-11-12T22:16:21.987Z,13.43
2023-11-12T22:18:49.263Z,13.63
2023-11-12T22:21:17.753Z,15.88
2023-11-12T22:23:45.426Z,8.82
2023-11-12T22:26:12.583Z,7.35
2023-11-12T22:28:39.867Z,8.05
2023-11-12T22:31:07.226Z,13.57
2023-11-12T22:33:34.505Z,6.72
2023-11-12T22:36:01.669Z,12.93
2023-11-12T22:38:28.830Z,10.65
2023-11-12T22:40:57.406Z,7.70
2023-11-12T22:43:26.010Z,7.63
2023-11-12T22:45:53.450Z,6.43
2023-11-12T22:48:20.657Z,6.10
2023-11-12T22:50:47.997Z,6.50
2023-11-12T22:53:16.246Z,11.82
2023-11-12T22:55:43.703Z,7.50
2023-11-12T22:58:11.325Z,6.70
2023-11-12T23:00:50.187Z,6.72
2023-11-12T23:03:18.719Z,7.13
2023-11-12T23:05:50.201Z,7.60
2023-11-12T23:08:17.408Z,6.82
2023-11-12T23:10:45.894Z,6.03
2023-11-12T23:13:14.365Z,6.22
2023-11-12T23:15:44.240Z,7.10
2023-11-12T23:18:12.997Z,7.65
2023-11-12T23:20:40.857Z,6.63
2023-11-12T23:23:08.205Z,6.40
2023-11-12T23:25:35.417Z,6.22
2023-11-12T23:28:02.723Z,5.95
2023-11-12T23:30:30.171Z,6.40
2023-11-12T23:32:57.652Z,5.57
2023-11-12T23:35:27.237Z,5.78
2023-11-12T23:37:54.806Z,5.60
2023-11-12T23:40:22.080Z,5.75
2023-11-12T23:42:49.482Z,5.20
2023-11-12T23:45:17.887Z,5.13
2023-11-12T23:47:45.104Z,5.65
2023-11-12T23:50:12.624Z,5.28
2023-11-12T23:52:39.965Z,5.25
2023-11-12T23:55:07.886Z,5.65
2023-11-12T23:57:35.861Z,5.50
